sensor_id;sensor_type;location;lat;lon;timestamp;P1;durP1;ratioP1;P2;durP2;ratioP2
41061;SDS011;26812;42.662;23.352;2023-08-21T00:02:16;5.60;;;4.80;;
41061;SDS011;26812;42.662;23.352;2023-08-21T00:04:41;6.70;;;4.57;;
41061;SDS011;26812;42.662;23.352;2023-08-21T00:07:06;6.10;;;4.40;;
41061;SDS011;26812;42.662;23.352;2023-08-21T00:09:34;6.35;;;5.03;;
41061;SDS011;26812;42.662;23.352;2023-08-21T00:11:59;7.68;;;5.30;;
41061;SDS011;26812;42.662;23.352;2023-08-21T00:14:24;6.40;;;4.80;;
41061;SDS011;26812;42.662;23.352;2023-08-21T00:16:50;5.85;;;5.28;;
41061;SDS011;26812;42.662;23.352;2023-08-21T00:19:15;10.30;;;5.63;;
41061;SDS011;26812;42.662;23.352;2023-08-21T00:21:41;7.50;;;5.10;;
41061;SDS011;26812;42.662;23.352;2023-08-21T00:24:06;4.90;;;4.40;;
41061;SDS011;26812;42.662;23.352;2023-08-21T00:26:31;8.07;;;6.47;;
41061;SDS011;26812;42.662;23.352;2023-08-21T00:29:03;8.88;;;4.72;;
41061;SDS011;26812;42.662;23.352;2023-08-21T00:31:29;10.07;;;5.15;;
41061;SDS011;26812;42.662;23.352;2023-08-21T00:33:54;7.60;;;5.18;;
41061;SDS011;26812;42.662;23.352;2023-08-21T00:36:19;6.10;;;4.68;;
41061;SDS011;26812;42.662;23.352;2023-08-21T00:38:45;5.93;;;5.32;;
41061;SDS011;26812;42.662;23.352;2023-08-21T00:41:11;9.60;;;5.32;;
41061;SDS011;26812;42.662;23.352;2023-08-21T00:43:37;8.43;;;5.25;;
41061;SDS011;26812;42.662;23.352;2023-08-21T00:46:02;5.57;;;4.88;;
41061;SDS011;26812;42.662;23.352;2023-08-21T00:48:28;6.72;;;5.50;;
41061;SDS011;26812;42.662;23.352;2023-08-21T00:50:53;6.80;;;4.97;;
41061;SDS011;26812;42.662;23.352;2023-08-21T00:53:19;9.57;;;7.15;;
41061;SDS011;26812;42.662;23.352;2023-08-21T00:55:45;7.00;;;5.80;;
41061;SDS011;26812;42.662;23.352;2023-08-21T00:58:10;6.35;;;5.43;;
41061;SDS011;26812;42.662;23.352;2023-08-21T01:00:39;7.10;;;4.57;;
41061;SDS011;26812;42.662;23.352;2023-08-21T01:03:06;8.38;;;5.75;;
41061;SDS011;26812;42.662;23.352;2023-08-21T01:05:31;6.75;;;5.13;;
41061;SDS011;26812;42.662;23.352;2023-08-21T01:07:59;8.35;;;5.88;;
41061;SDS011;26812;42.662;23.352;2023-08-21T01:12:56;6.10;;;5.07;;
41061;SDS011;26812;42.662;23.352;2023-08-21T01:15:30;6.68;;;5.10;;
41061;SDS011;26812;42.662;23.352;2023-08-21T01:17:56;7.70;;;5.05;;
41061;SDS011;26812;42.662;23.352;2023-08-21T01:20:23;5.40;;;4.78;;
41061;SDS011;26812;42.662;23.352;2023-08-21T01:22:49;5.45;;;4.55;;
41061;SDS011;26812;42.662;23.352;2023-08-21T01:25:15;9.13;;;5.38;;
41061;SDS011;26812;42.662;23.352;2023-08-21T01:27:42;8.20;;;5.43;;
41061;SDS011;26812;42.662;23.352;2023-08-21T01:30:12;6.60;;;5.28;;
41061;SDS011;26812;42.662;23.352;2023-08-21T01:35:17;8.05;;;5.80;;
41061;SDS011;26812;42.662;23.352;2023-08-21T01:37:43;7.47;;;6.07;;
41061;SDS011;26812;42.662;23.352;2023-08-21T01:40:09;10.32;;;6.15;;
41061;SDS011;26812;42.662;23.352;2023-08-21T01:42:35;5.80;;;5.13;;
41061;SDS011;26812;42.662;23.352;2023-08-21T01:45:00;6.88;;;5.60;;
41061;SDS011;26812;42.662;23.352;2023-08-21T01:47:26;5.72;;;5.05;;
41061;SDS011;26812;42.662;23.352;2023-08-21T01:49:51;8.15;;;5.43;;
41061;SDS011;26812;42.662;23.352;2023-08-21T01:52:17;11.13;;;5.60;;
41061;SDS011;26812;42.662;23.352;2023-08-21T01:54:43;25.50;;;7.32;;
41061;SDS011;26812;42.662;23.352;2023-08-21T01:57:09;6.18;;;4.68;;
41061;SDS011;26812;42.662;23.352;2023-08-21T01:59:34;6.53;;;5.70;;
41061;SDS011;26812;42.662;23.352;2023-08-21T02:01:59;35.00;;;7.63;;
41061;SDS011;26812;42.662;23.352;2023-08-21T02:04:25;8.02;;;5.57;;
41061;SDS011;26812;42.662;23.352;2023-08-21T02:06:50;7.35;;;5.53;;
41061;SDS011;26812;42.662;23.352;2023-08-21T02:09:15;6.25;;;5.65;;
41061;SDS011;26812;42.662;23.352;2023-08-21T02:11:41;6.63;;;5.10;;
41061;SDS011;26812;42.662;23.352;2023-08-21T02:14:06;5.85;;;5.22;;
41061;SDS011;26812;42.662;23.352;2023-08-21T02:16:32;5.82;;;4.68;;
41061;SDS011;26812;42.662;23.352;2023-08-21T02:18:57;6.00;;;4.78;;
41061;SDS011;26812;42.662;23.352;2023-08-21T02:21:23;6.90;;;5.13;;
41061;SDS011;26812;42.662;23.352;2023-08-21T02:23:48;7.13;;;5.57;;
41061;SDS011;26812;42.662;23.352;2023-08-21T02:26:14;5.90;;;5.30;;
41061;SDS011;26812;42.662;23.352;2023-08-21T02:28:39;7.03;;;6.00;;
41061;SDS011;26812;42.662;23.352;2023-08-21T02:31:05;6.38;;;5.20;;
41061;SDS011;26812;42.662;23.352;2023-08-21T02:33:33;6.82;;;5.20;;
41061;SDS011;26812;42.662;23.352;2023-08-21T02:35:59;10.43;;;6.00;;
41061;SDS011;26812;42.662;23.352;2023-08-21T02:38:24;6.43;;;5.10;;
41061;SDS011;26812;42.662;23.352;2023-08-21T02:40:49;7.07;;;4.63;;
41061;SDS011;26812;42.662;23.352;2023-08-21T02:43:15;8.57;;;5.15;;
41061;SDS011;26812;42.662;23.352;2023-08-21T02:45:41;5.30;;;4.80;;
41061;SDS011;26812;42.662;23.352;2023-08-21T02:48:07;5.47;;;4.90;;
41061;SDS011;26812;42.662;23.352;2023-08-21T02:50:32;5.72;;;5.13;;
41061;SDS011;26812;42.662;23.352;2023-08-21T02:52:57;6.47;;;4.72;;
41061;SDS011;26812;42.662;23.352;2023-08-21T02:55:23;6.28;;;4.90;;
41061;SDS011;26812;42.662;23.352;2023-08-21T02:57:55;8.85;;;4.53;;
41061;SDS011;26812;42.662;23.352;2023-08-21T03:00:21;8.60;;;5.55;;
41061;SDS011;26812;42.662;23.352;2023-08-21T03:02:46;7.05;;;5.00;;
41061;SDS011;26812;42.662;23.352;2023-08-21T03:05:11;6.60;;;5.25;;
41061;SDS011;26812;42.662;23.352;2023-08-21T03:07:38;5.65;;;5.00;;
41061;SDS011;26812;42.662;23.352;2023-08-21T03:10:04;7.07;;;5.13;;
41061;SDS011;26812;42.662;23.352;2023-08-21T03:12:30;7.95;;;5.63;;
41061;SDS011;26812;42.662;23.352;2023-08-21T03:14:56;9.00;;;5.18;;
41061;SDS011;26812;42.662;23.352;2023-08-21T03:17:21;8.48;;;4.68;;
41061;SDS011;26812;42.662;23.352;2023-08-21T03:19:46;6.63;;;4.43;;
41061;SDS011;26812;42.662;23.352;2023-08-21T03:22:12;4.20;;;3.80;;
41061;SDS011;26812;42.662;23.352;2023-08-21T03:24:37;5.05;;;3.25;;
41061;SDS011;26812;42.662;23.352;2023-08-21T03:27:02;5.40;;;3.60;;
41061;SDS011;26812;42.662;23.352;2023-08-21T03:29:28;4.55;;;3.58;;
41061;SDS011;26812;42.662;23.352;2023-08-21T03:31:53;3.65;;;3.30;;
41061;SDS011;26812;42.662;23.352;2023-08-21T03:34:19;8.07;;;4.07;;
41061;SDS011;26812;42.662;23.352;2023-08-21T03:36:45;6.22;;;4.20;;
41061;SDS011;26812;42.662;23.352;2023-08-21T03:39:11;4.78;;;4.03;;
41061;SDS011;26812;42.662;23.352;2023-08-21T03:41:36;4.15;;;2.42;;
41061;SDS011;26812;42.662;23.352;2023-08-21T03:44:01;3.60;;;3.22;;
41061;SDS011;26812;42.662;23.352;2023-08-21T03:46:27;4.72;;;3.20;;
41061;SDS011;26812;42.662;23.352;2023-08-21T03:48:52;4.72;;;3.42;;
41061;SDS011;26812;42.662;23.352;2023-08-21T03:51:18;4.60;;;3.72;;
41061;SDS011;26812;42.662;23.352;2023-08-21T03:53:43;5.65;;;3.65;;
41061;SDS011;26812;42.662;23.352;2023-08-21T03:56:08;4.22;;;3.55;;
41061;SDS011;26812;42.662;23.352;2023-08-21T03:58:34;3.85;;;3.47;;
41061;SDS011;26812;42.662;23.352;2023-08-21T04:01:00;5.05;;;3.72;;
41061;SDS011;26812;42.662;23.352;2023-08-21T04:03:25;5.38;;;3.58;;
41061;SDS011;26812;42.662;23.352;2023-08-21T04:05:52;4.22;;;3.45;;
41061;SDS011;26812;42.662;23.352;2023-08-21T04:08:18;3.75;;;3.22;;
41061;SDS011;26812;42.662;23.352;2023-08-21T04:10:43;4.38;;;3.25;;
41061;SDS011;26812;42.662;23.352;2023-08-21T04:13:09;5.28;;;3.97;;
41061;SDS011;26812;42.662;23.352;2023-08-21T04:15:34;5.88;;;3.75;;
41061;SDS011;26812;42.662;23.352;2023-08-21T04:18:02;4.80;;;4.05;;
41061;SDS011;26812;42.662;23.352;2023-08-21T04:20:28;4.53;;;3.38;;
41061;SDS011;26812;42.662;23.352;2023-08-21T04:22:53;3.72;;;3.30;;
41061;SDS011;26812;42.662;23.352;2023-08-21T04:25:19;6.22;;;4.20;;
41061;SDS011;26812;42.662;23.352;2023-08-21T04:27:44;4.97;;;3.83;;
41061;SDS011;26812;42.662;23.352;2023-08-21T04:30:16;5.75;;;4.03;;
41061;SDS011;26812;42.662;23.352;2023-08-21T04:32:41;5.82;;;4.65;;
41061;SDS011;26812;42.662;23.352;2023-08-21T04:35:07;5.93;;;3.95;;
41061;SDS011;26812;42.662;23.352;2023-08-21T04:37:33;4.53;;;3.10;;
41061;SDS011;26812;42.662;23.352;2023-08-21T04:39:59;4.47;;;3.75;;
41061;SDS011;26812;42.662;23.352;2023-08-21T04:42:24;4.88;;;3.78;;
41061;SDS011;26812;42.662;23.352;2023-08-21T04:44:49;4.90;;;3.92;;
41061;SDS011;26812;42.662;23.352;2023-08-21T04:47:22;5.63;;;3.55;;
41061;SDS011;26812;42.662;23.352;2023-08-21T04:49:49;4.43;;;3.47;;
41061;SDS011;26812;42.662;23.352;2023-08-21T04:52:17;3.30;;;3.00;;
41061;SDS011;26812;42.662;23.352;2023-08-21T04:54:43;4.45;;;3.30;;
41061;SDS011;26812;42.662;23.352;2023-08-21T04:57:08;3.85;;;2.97;;
41061;SDS011;26812;42.662;23.352;2023-08-21T04:59:37;3.67;;;3.20;;
41061;SDS011;26812;42.662;23.352;2023-08-21T05:02:03;3.85;;;3.35;;
41061;SDS011;26812;42.662;23.352;2023-08-21T05:04:28;4.65;;;3.17;;
41061;SDS011;26812;42.662;23.352;2023-08-21T05:06:54;8.48;;;3.80;;
41061;SDS011;26812;42.662;23.352;2023-08-21T05:09:19;4.68;;;3.97;;
41061;SDS011;26812;42.662;23.352;2023-08-21T05:11:44;5.53;;;4.93;;
41061;SDS011;26812;42.662;23.352;2023-08-21T05:14:10;4.00;;;3.60;;
41061;SDS011;26812;42.662;23.352;2023-08-21T05:16:35;4.53;;;3.58;;
41061;SDS011;26812;42.662;23.352;2023-08-21T05:19:01;5.45;;;3.42;;
41061;SDS011;26812;42.662;23.352;2023-08-21T05:21:26;7.70;;;4.15;;
41061;SDS011;26812;42.662;23.352;2023-08-21T05:23:52;4.97;;;3.35;;
41061;SDS011;26812;42.662;23.352;2023-08-21T05:26:18;3.70;;;3.25;;
41061;SDS011;26812;42.662;23.352;2023-08-21T05:28:44;4.22;;;3.90;;
41061;SDS011;26812;42.662;23.352;2023-08-21T05:31:10;4.50;;;4.05;;
41061;SDS011;26812;42.662;23.352;2023-08-21T05:33:35;5.40;;;3.10;;
41061;SDS011;26812;42.662;23.352;2023-08-21T05:36:01;6.43;;;4.13;;
41061;SDS011;26812;42.662;23.352;2023-08-21T05:38:26;5.28;;;3.83;;
41061;SDS011;26812;42.662;23.352;2023-08-21T05:40:51;5.45;;;3.70;;
41061;SDS011;26812;42.662;23.352;2023-08-21T05:43:17;5.30;;;4.00;;
41061;SDS011;26812;42.662;23.352;2023-08-21T05:45:42;5.88;;;3.92;;
41061;SDS011;26812;42.662;23.352;2023-08-21T05:48:08;5.60;;;3.75;;
41061;SDS011;26812;42.662;23.352;2023-08-21T05:50:41;4.28;;;3.55;;
41061;SDS011;26812;42.662;23.352;2023-08-21T05:53:07;4.55;;;3.10;;
41061;SDS011;26812;42.662;23.352;2023-08-21T05:55:32;3.65;;;3.05;;
41061;SDS011;26812;42.662;23.352;2023-08-21T05:57:58;4.32;;;3.78;;
41061;SDS011;26812;42.662;23.352;2023-08-21T06:00:23;3.97;;;3.40;;
41061;SDS011;26812;42.662;23.352;2023-08-21T06:02:48;5.45;;;4.35;;
41061;SDS011;26812;42.662;23.352;2023-08-21T06:05:14;3.95;;;3.42;;
41061;SDS011;26812;42.662;23.352;2023-08-21T06:07:39;4.03;;;3.50;;
41061;SDS011;26812;42.662;23.352;2023-08-21T06:10:06;4.15;;;2.95;;
41061;SDS011;26812;42.662;23.352;2023-08-21T06:12:37;6.38;;;4.78;;
41061;SDS011;26812;42.662;23.352;2023-08-21T06:15:03;5.60;;;3.70;;
41061;SDS011;26812;42.662;23.352;2023-08-21T06:17:29;4.28;;;3.45;;
41061;SDS011;26812;42.662;23.352;2023-08-21T06:19:54;5.28;;;3.60;;
41061;SDS011;26812;42.662;23.352;2023-08-21T06:22:20;5.43;;;3.40;;
41061;SDS011;26812;42.662;23.352;2023-08-21T06:24:45;4.47;;;4.07;;
41061;SDS011;26812;42.662;23.352;2023-08-21T06:27:11;3.20;;;2.90;;
41061;SDS011;26812;42.662;23.352;2023-08-21T06:29:36;4.60;;;3.55;;
41061;SDS011;26812;42.662;23.352;2023-08-21T06:32:05;4.20;;;3.47;;
41061;SDS011;26812;42.662;23.352;2023-08-21T06:34:31;4.95;;;3.67;;
41061;SDS011;26812;42.662;23.352;2023-08-21T06:36:56;4.00;;;2.95;;
41061;SDS011;26812;42.662;23.352;2023-08-21T06:39:21;4.80;;;3.17;;
41061;SDS011;26812;42.662;23.352;2023-08-21T06:41:47;4.00;;;3.03;;
41061;SDS011;26812;42.662;23.352;2023-08-21T06:44:12;3.40;;;3.10;;
41061;SDS011;26812;42.662;23.352;2023-08-21T06:46:37;5.35;;;3.65;;
41061;SDS011;26812;42.662;23.352;2023-08-21T06:49:03;4.38;;;3.22;;
41061;SDS011;26812;42.662;23.352;2023-08-21T06:51:28;3.47;;;3.00;;
41061;SDS011;26812;42.662;23.352;2023-08-21T06:53:54;5.07;;;3.22;;
41061;SDS011;26812;42.662;23.352;2023-08-21T06:56:19;3.70;;;2.70;;
41061;SDS011;26812;42.662;23.352;2023-08-21T06:58:44;4.47;;;3.50;;
41061;SDS011;26812;42.662;23.352;2023-08-21T07:01:10;3.25;;;2.85;;
41061;SDS011;26812;42.662;23.352;2023-08-21T07:03:42;2.30;;;2.10;;
41061;SDS011;26812;42.662;23.352;2023-08-21T07:06:08;4.32;;;2.97;;
41061;SDS011;26812;42.662;23.352;2023-08-21T07:08:33;3.28;;;2.40;;
41061;SDS011;26812;42.662;23.352;2023-08-21T07:11:01;2.50;;;2.30;;
41061;SDS011;26812;42.662;23.352;2023-08-21T07:13:28;3.70;;;2.60;;
41061;SDS011;26812;42.662;23.352;2023-08-21T07:15:54;3.13;;;2.80;;
41061;SDS011;26812;42.662;23.352;2023-08-21T07:18:20;4.03;;;2.78;;
41061;SDS011;26812;42.662;23.352;2023-08-21T07:20:45;3.92;;;2.88;;
41061;SDS011;26812;42.662;23.352;2023-08-21T07:23:10;3.97;;;2.65;;
41061;SDS011;26812;42.662;23.352;2023-08-21T07:25:36;3.03;;;2.47;;
41061;SDS011;26812;42.662;23.352;2023-08-21T07:28:02;5.53;;;4.68;;
41061;SDS011;26812;42.662;23.352;2023-08-21T07:30:27;4.45;;;3.55;;
41061;SDS011;26812;42.662;23.352;2023-08-21T07:32:53;20.75;;;11.35;;
41061;SDS011;26812;42.662;23.352;2023-08-21T07:35:18;3.30;;;2.60;;
41061;SDS011;26812;42.662;23.352;2023-08-21T07:37:45;3.08;;;2.50;;
41061;SDS011;26812;42.662;23.352;2023-08-21T07:40:11;11.35;;;6.50;;
41061;SDS011;26812;42.662;23.352;2023-08-21T07:42:37;3.78;;;3.38;;
41061;SDS011;26812;42.662;23.352;2023-08-21T07:45:02;3.85;;;3.05;;
41061;SDS011;26812;42.662;23.352;2023-08-21T07:47:28;3.38;;;2.13;;
41061;SDS011;26812;42.662;23.352;2023-08-21T07:49:57;3.85;;;2.40;;
41061;SDS011;26812;42.662;23.352;2023-08-21T07:52:22;3.30;;;2.60;;
41061;SDS011;26812;42.662;23.352;2023-08-21T07:54:51;3.05;;;2.28;;
41061;SDS011;26812;42.662;23.352;2023-08-21T07:57:18;3.80;;;2.67;;
41061;SDS011;26812;42.662;23.352;2023-08-21T07:59:43;3.38;;;2.65;;
41061;SDS011;26812;42.662;23.352;2023-08-21T08:02:08;3.20;;;2.60;;
41061;SDS011;26812;42.662;23.352;2023-08-21T08:04:36;2.75;;;2.40;;
41061;SDS011;26812;42.662;23.352;2023-08-21T08:07:01;4.57;;;2.50;;
41061;SDS011;26812;42.662;23.352;2023-08-21T08:09:27;3.35;;;2.45;;
41061;SDS011;26812;42.662;23.352;2023-08-21T08:11:52;2.88;;;2.22;;
41061;SDS011;26812;42.662;23.352;2023-08-21T08:14:17;2.65;;;2.33;;
41061;SDS011;26812;42.662;23.352;2023-08-21T08:16:43;3.53;;;2.15;;
41061;SDS011;26812;42.662;23.352;2023-08-21T08:19:08;3.22;;;2.30;;
41061;SDS011;26812;42.662;23.352;2023-08-21T08:21:34;2.80;;;2.28;;
41061;SDS011;26812;42.662;23.352;2023-08-21T08:23:59;3.35;;;2.95;;
41061;SDS011;26812;42.662;23.352;2023-08-21T08:26:24;2.20;;;2.00;;
41061;SDS011;26812;42.662;23.352;2023-08-21T08:28:50;2.42;;;2.22;;
41061;SDS011;26812;42.662;23.352;2023-08-21T08:31:22;3.58;;;2.70;;
41061;SDS011;26812;42.662;23.352;2023-08-21T08:33:48;2.60;;;2.40;;
41061;SDS011;26812;42.662;23.352;2023-08-21T08:36:14;4.35;;;2.58;;
41061;SDS011;26812;42.662;23.352;2023-08-21T08:38:39;2.95;;;2.50;;
41061;SDS011;26812;42.662;23.352;2023-08-21T08:41:10;3.85;;;2.58;;
41061;SDS011;26812;42.662;23.352;2023-08-21T08:43:40;2.70;;;2.50;;
41061;SDS011;26812;42.662;23.352;2023-08-21T08:46:06;2.80;;;2.47;;
41061;SDS011;26812;42.662;23.352;2023-08-21T08:48:33;3.15;;;2.78;;
41061;SDS011;26812;42.662;23.352;2023-08-21T08:51:00;2.85;;;2.58;;
41061;SDS011;26812;42.662;23.352;2023-08-21T08:53:29;2.50;;;2.30;;
41061;SDS011;26812;42.662;23.352;2023-08-21T08:55:55;2.40;;;2.20;;
41061;SDS011;26812;42.662;23.352;2023-08-21T08:58:20;2.90;;;2.40;;
41061;SDS011;26812;42.662;23.352;2023-08-21T09:00:45;5.68;;;3.38;;
41061;SDS011;26812;42.662;23.352;2023-08-21T09:03:11;4.20;;;3.47;;
41061;SDS011;26812;42.662;23.352;2023-08-21T09:05:39;2.63;;;2.42;;
41061;SDS011;26812;42.662;23.352;2023-08-21T09:10:34;2.08;;;1.83;;
41061;SDS011;26812;42.662;23.352;2023-08-21T09:13:01;2.55;;;2.35;;
41061;SDS011;26812;42.662;23.352;2023-08-21T09:15:33;2.50;;;2.30;;
41061;SDS011;26812;42.662;23.352;2023-08-21T09:18:01;2.55;;;2.35;;
41061;SDS011;26812;42.662;23.352;2023-08-21T09:20:27;3.08;;;2.78;;
41061;SDS011;26812;42.662;23.352;2023-08-21T09:22:52;3.15;;;2.25;;
41061;SDS011;26812;42.662;23.352;2023-08-21T09:25:20;2.33;;;2.05;;
41061;SDS011;26812;42.662;23.352;2023-08-21T09:27:45;3.83;;;2.17;;
41061;SDS011;26812;42.662;23.352;2023-08-21T09:30:11;2.22;;;2.00;;
41061;SDS011;26812;42.662;23.352;2023-08-21T09:32:53;2.15;;;1.95;;
41061;SDS011;26812;42.662;23.352;2023-08-21T09:35:20;2.35;;;2.08;;
41061;SDS011;26812;42.662;23.352;2023-08-21T09:37:48;2.00;;;1.85;;
41061;SDS011;26812;42.662;23.352;2023-08-21T09:40:14;3.15;;;2.20;;
41061;SDS011;26812;42.662;23.352;2023-08-21T09:42:40;3.30;;;2.22;;
41061;SDS011;26812;42.662;23.352;2023-08-21T09:45:06;2.90;;;2.05;;
41061;SDS011;26812;42.662;23.352;2023-08-21T09:47:32;2.58;;;2.38;;
41061;SDS011;26812;42.662;23.352;2023-08-21T09:49:58;2.35;;;2.00;;
41061;SDS011;26812;42.662;23.352;2023-08-21T09:52:24;2.28;;;2.03;;
41061;SDS011;26812;42.662;23.352;2023-08-21T09:54:53;3.20;;;1.98;;
41061;SDS011;26812;42.662;23.352;2023-08-21T09:57:20;2.42;;;2.08;;
41061;SDS011;26812;42.662;23.352;2023-08-21T09:59:49;2.92;;;2.13;;
41061;SDS011;26812;42.662;23.352;2023-08-21T10:02:17;1.92;;;1.70;;
41061;SDS011;26812;42.662;23.352;2023-08-21T10:04:43;2.97;;;1.70;;
41061;SDS011;26812;42.662;23.352;2023-08-21T10:07:10;1.83;;;1.73;;
41061;SDS011;26812;42.662;23.352;2023-08-21T10:09:39;2.30;;;2.10;;
41061;SDS011;26812;42.662;23.352;2023-08-21T10:12:08;2.22;;;1.90;;
41061;SDS011;26812;42.662;23.352;2023-08-21T10:14:34;2.10;;;1.90;;
41061;SDS011;26812;42.662;23.352;2023-08-21T10:17:01;1.70;;;1.60;;
41061;SDS011;26812;42.662;23.352;2023-08-21T10:19:32;3.22;;;2.05;;
41061;SDS011;26812;42.662;23.352;2023-08-21T10:21:58;2.17;;;1.67;;
41061;SDS011;26812;42.662;23.352;2023-08-21T10:24:28;2.63;;;2.20;;
41061;SDS011;26812;42.662;23.352;2023-08-21T10:26:58;2.25;;;2.05;;
41061;SDS011;26812;42.662;23.352;2023-08-21T10:29:24;2.13;;;1.80;;
41061;SDS011;26812;42.662;23.352;2023-08-21T10:32:03;3.38;;;2.40;;
41061;SDS011;26812;42.662;23.352;2023-08-21T10:34:33;2.08;;;1.80;;
41061;SDS011;26812;42.662;23.352;2023-08-21T10:39:32;2.15;;;1.80;;
41061;SDS011;26812;42.662;23.352;2023-08-21T10:42:01;2.05;;;1.85;;
41061;SDS011;26812;42.662;23.352;2023-08-21T10:44:54;2.20;;;2.00;;
41061;SDS011;26812;42.662;23.352;2023-08-21T10:49:53;1.95;;;1.52;;
41061;SDS011;26812;42.662;23.352;2023-08-21T10:52:23;2.22;;;2.03;;
41061;SDS011;26812;42.662;23.352;2023-08-21T10:54:51;2.33;;;1.70;;
41061;SDS011;26812;42.662;23.352;2023-08-21T10:57:19;3.67;;;2.15;;
41061;SDS011;26812;42.662;23.352;2023-08-21T10:59:54;2.67;;;2.42;;
41061;SDS011;26812;42.662;23.352;2023-08-21T11:02:25;2.25;;;2.05;;
41061;SDS011;26812;42.662;23.352;2023-08-21T11:04:54;2.67;;;2.33;;
41061;SDS011;26812;42.662;23.352;2023-08-21T11:07:20;3.83;;;1.92;;
41061;SDS011;26812;42.662;23.352;2023-08-21T11:09:48;1.98;;;1.77;;
41061;SDS011;26812;42.662;23.352;2023-08-21T11:12:15;2.50;;;2.30;;
41061;SDS011;26812;42.662;23.352;2023-08-21T11:14:42;3.85;;;2.13;;
41061;SDS011;26812;42.662;23.352;2023-08-21T11:17:08;2.38;;;2.08;;
41061;SDS011;26812;42.662;23.352;2023-08-21T11:19:35;1.90;;;1.80;;
41061;SDS011;26812;42.662;23.352;2023-08-21T11:22:02;3.30;;;2.00;;
41061;SDS011;26812;42.662;23.352;2023-08-21T11:27:03;4.38;;;2.30;;
41061;SDS011;26812;42.662;23.352;2023-08-21T11:29:32;2.28;;;1.92;;
41061;SDS011;26812;42.662;23.352;2023-08-21T11:32:01;2.60;;;2.00;;
41061;SDS011;26812;42.662;23.352;2023-08-21T11:34:28;1.75;;;1.63;;
41061;SDS011;26812;42.662;23.352;2023-08-21T11:36:53;3.13;;;1.98;;
41061;SDS011;26812;42.662;23.352;2023-08-21T11:39:19;2.08;;;1.88;;
41061;SDS011;26812;42.662;23.352;2023-08-21T11:41:55;2.78;;;2.58;;
41061;SDS011;26812;42.662;23.352;2023-08-21T11:44:21;2.20;;;1.90;;
41061;SDS011;26812;42.662;23.352;2023-08-21T11:46:47;2.85;;;2.15;;
41061;SDS011;26812;42.662;23.352;2023-08-21T11:49:12;4.85;;;2.22;;
41061;SDS011;26812;42.662;23.352;2023-08-21T11:51:38;3.58;;;2.22;;
41061;SDS011;26812;42.662;23.352;2023-08-21T11:54:04;2.22;;;2.03;;
41061;SDS011;26812;42.662;23.352;2023-08-21T11:56:30;3.60;;;2.03;;
41061;SDS011;26812;42.662;23.352;2023-08-21T11:58:56;2.85;;;2.17;;
41061;SDS011;26812;42.662;23.352;2023-08-21T12:01:24;3.38;;;2.10;;
41061;SDS011;26812;42.662;23.352;2023-08-21T12:03:49;2.13;;;1.92;;
41061;SDS011;26812;42.662;23.352;2023-08-21T12:06:21;1.77;;;1.40;;
41061;SDS011;26812;42.662;23.352;2023-08-21T12:08:47;3.38;;;1.77;;
41061;SDS011;26812;42.662;23.352;2023-08-21T12:11:13;2.55;;;1.67;;
41061;SDS011;26812;42.662;23.352;2023-08-21T12:13:38;2.30;;;2.10;;
41061;SDS011;26812;42.662;23.352;2023-08-21T12:16:04;2.13;;;1.98;;
41061;SDS011;26812;42.662;23.352;2023-08-21T12:18:29;1.98;;;1.67;;
41061;SDS011;26812;42.662;23.352;2023-08-21T12:20:55;1.85;;;1.67;;
41061;SDS011;26812;42.662;23.352;2023-08-21T12:23:20;2.92;;;1.85;;
41061;SDS011;26812;42.662;23.352;2023-08-21T12:25:53;2.42;;;1.83;;
41061;SDS011;26812;42.662;23.352;2023-08-21T12:28:18;2.45;;;1.88;;
41061;SDS011;26812;42.662;23.352;2023-08-21T12:30:44;2.60;;;1.85;;
41061;SDS011;26812;42.662;23.352;2023-08-21T12:33:16;2.88;;;1.75;;
41061;SDS011;26812;42.662;23.352;2023-08-21T12:35:41;2.30;;;1.95;;
41061;SDS011;26812;42.662;23.352;2023-08-21T12:38:10;3.40;;;2.15;;
41061;SDS011;26812;42.662;23.352;2023-08-21T12:40:37;2.63;;;2.20;;
41061;SDS011;26812;42.662;23.352;2023-08-21T12:43:03;2.03;;;1.83;;
41061;SDS011;26812;42.662;23.352;2023-08-21T12:45:28;2.08;;;1.83;;
41061;SDS011;26812;42.662;23.352;2023-08-21T12:47:53;1.40;;;1.30;;
41061;SDS011;26812;42.662;23.352;2023-08-21T12:50:19;2.03;;;1.65;;
41061;SDS011;26812;42.662;23.352;2023-08-21T12:52:44;3.53;;;2.00;;
41061;SDS011;26812;42.662;23.352;2023-08-21T12:55:10;2.20;;;1.77;;
41061;SDS011;26812;42.662;23.352;2023-08-21T12:57:35;1.88;;;1.55;;
41061;SDS011;26812;42.662;23.352;2023-08-21T13:00:00;2.88;;;2.55;;
41061;SDS011;26812;42.662;23.352;2023-08-21T13:02:26;2.08;;;1.88;;
41061;SDS011;26812;42.662;23.352;2023-08-21T13:04:52;2.92;;;2.00;;
41061;SDS011;26812;42.662;23.352;2023-08-21T13:07:18;3.40;;;2.28;;
41061;SDS011;26812;42.662;23.352;2023-08-21T13:09:43;1.77;;;1.63;;
41061;SDS011;26812;42.662;23.352;2023-08-21T13:12:08;1.92;;;1.73;;
41061;SDS011;26812;42.662;23.352;2023-08-21T13:14:34;2.10;;;1.90;;
41061;SDS011;26812;42.662;23.352;2023-08-21T13:16:59;2.78;;;1.92;;
41061;SDS011;26812;42.662;23.352;2023-08-21T13:19:25;1.90;;;1.77;;
41061;SDS011;26812;42.662;23.352;2023-08-21T13:21:50;1.77;;;1.60;;
41061;SDS011;26812;42.662;23.352;2023-08-21T13:24:16;2.13;;;1.92;;
41061;SDS011;26812;42.662;23.352;2023-08-21T13:26:41;1.63;;;1.40;;
41061;SDS011;26812;42.662;23.352;2023-08-21T13:29:07;2.13;;;1.92;;
41061;SDS011;26812;42.662;23.352;2023-08-21T13:31:32;2.08;;;1.70;;
41061;SDS011;26812;42.662;23.352;2023-08-21T13:33:58;3.20;;;1.80;;
41061;SDS011;26812;42.662;23.352;2023-08-21T13:36:23;1.90;;;1.70;;
41061;SDS011;26812;42.662;23.352;2023-08-21T13:38:48;2.30;;;2.10;;
41061;SDS011;26812;42.662;23.352;2023-08-21T13:41:14;2.05;;;1.85;;
41061;SDS011;26812;42.662;23.352;2023-08-21T13:43:39;2.10;;;1.80;;
41061;SDS011;26812;42.662;23.352;2023-08-21T13:46:05;2.35;;;2.15;;
41061;SDS011;26812;42.662;23.352;2023-08-21T13:48:30;2.65;;;1.98;;
41061;SDS011;26812;42.662;23.352;2023-08-21T13:50:56;2.13;;;1.90;;
41061;SDS011;26812;42.662;23.352;2023-08-21T13:53:22;2.92;;;1.90;;
41061;SDS011;26812;42.662;23.352;2023-08-21T13:55:47;1.85;;;1.75;;
41061;SDS011;26812;42.662;23.352;2023-08-21T13:58:12;2.15;;;1.80;;
41061;SDS011;26812;42.662;23.352;2023-08-21T14:00:38;3.15;;;1.95;;
41061;SDS011;26812;42.662;23.352;2023-08-21T14:03:04;2.15;;;1.95;;
41061;SDS011;26812;42.662;23.352;2023-08-21T14:05:29;2.15;;;1.67;;
41061;SDS011;26812;42.662;23.352;2023-08-21T14:07:56;2.08;;;1.70;;
41061;SDS011;26812;42.662;23.352;2023-08-21T14:10:22;2.05;;;1.80;;
41061;SDS011;26812;42.662;23.352;2023-08-21T14:12:47;2.05;;;1.70;;
41061;SDS011;26812;42.662;23.352;2023-08-21T14:15:13;2.13;;;1.75;;
41061;SDS011;26812;42.662;23.352;2023-08-21T14:17:38;2.17;;;1.50;;
41061;SDS011;26812;42.662;23.352;2023-08-21T14:20:04;1.60;;;1.50;;
41061;SDS011;26812;42.662;23.352;2023-08-21T14:22:32;2.22;;;2.03;;
41061;SDS011;26812;42.662;23.352;2023-08-21T14:25:04;2.15;;;1.95;;
41061;SDS011;26812;42.662;23.352;2023-08-21T14:27:32;2.55;;;2.00;;
41061;SDS011;26812;42.662;23.352;2023-08-21T14:29:58;2.55;;;1.98;;
41061;SDS011;26812;42.662;23.352;2023-08-21T14:32:23;2.10;;;1.77;;
41061;SDS011;26812;42.662;23.352;2023-08-21T14:34:49;2.05;;;1.85;;
41061;SDS011;26812;42.662;23.352;2023-08-21T14:37:14;2.55;;;2.35;;
41061;SDS011;26812;42.662;23.352;2023-08-21T14:39:43;3.60;;;1.98;;
41061;SDS011;26812;42.662;23.352;2023-08-21T14:42:09;2.05;;;1.88;;
41061;SDS011;26812;42.662;23.352;2023-08-21T14:44:35;4.13;;;2.63;;